Time;durP1;ratioP1;P1;durP2;ratioP2;P2;SDS_P1;SDS_P2;PMS_P1;PMS_P2;Temp;Humidity;BMP_temperature;BMP_pressure;BME280_temperature;BME280_humidity;BME280_pressure;Samples;Min_cycle;Max_cycle;Signal;HPM_P1;HPM_P2
2023/04/09 00:00:45;;;;;;;20.52;16.00;;;6.80;99.90;;;;;;5058542;28;20020;-57
2023/04/09 00:03:10;;;;;;;19.92;14.45;;;6.80;99.90;;;;;;5058800;28;20642;-56
2023/04/09 00:05:39;;;;;;;19.05;15.70;;;6.80;99.90;;;;;;5057230;28;20041;-57
2023/04/09 00:08:06;;;;;;;18.67;14.73;;;6.80;99.90;;;;;;5061191;28;20443;-57
2023/04/09 00:10:31;;;;;;;16.25;13.90;;;6.80;99.90;;;;;;5057940;28;20025;-55
2023/04/09 00:12:57;;;;;;;17.38;14.20;;;6.90;99.90;;;;;;5062508;28;20060;-55
2023/04/09 00:15:23;;;;;;;20.25;14.80;;;6.90;99.90;;;;;;5062003;28;20024;-56
2023/04/09 00:17:48;;;;;;;16.02;14.10;;;6.90;99.90;;;;;;5058357;28;20033;-57
2023/04/09 00:20:14;;;;;;;16.58;14.70;;;7.00;99.90;;;;;;5061157;28;20086;-57
2023/04/09 00:22:40;;;;;;;17.10;13.05;;;6.90;99.90;;;;;;5057596;28;20119;-57
2023/04/09 00:25:06;;;;;;;17.27;13.38;;;6.90;99.90;;;;;;5058647;28;20104;-56
2023/04/09 00:27:32;;;;;;;19.85;13.98;;;6.90;99.90;;;;;;5057298;28;20024;-57
2023/04/09 00:29:57;;;;;;;17.73;13.65;;;6.90;99.90;;;;;;5056987;28;20020;-57
2023/04/09 00:32:23;;;;;;;16.85;14.18;;;6.90;99.90;;;;;;5057342;28;20397;-56
2023/04/09 00:34:49;;;;;;;17.63;14.50;;;6.90;99.90;;;;;;5057273;28;20071;-56
2023/04/09 00:37:15;;;;;;;15.52;13.93;;;6.90;99.90;;;;;;5058848;28;20102;-56
2023/04/09 00:39:41;;;;;;;19.20;13.32;;;6.90;99.90;;;;;;5059912;28;20032;-57
2023/04/09 00:42:07;;;;;;;18.75;14.90;;;6.90;99.90;;;;;;5058593;28;20456;-58
2023/04/09 00:44:32;;;;;;;16.38;13.70;;;6.90;99.90;;;;;;5056102;28;20052;-57
2023/04/09 00:47:01;;;;;;;15.93;14.25;;;6.80;99.90;;;;;;5056039;28;20040;-58
2023/04/09 00:49:27;;;;;;;18.02;13.68;;;6.80;99.90;;;;;;5055596;28;20095;-56
2023/04/09 00:51:53;;;;;;;16.60;14.13;;;6.80;99.90;;;;;;5056004;28;20029;-55
2023/04/09 00:54:19;;;;;;;22.15;14.95;;;6.70;99.90;;;;;;5058544;28;20033;-56
2023/04/09 00:56:44;;;;;;;15.95;14.23;;;6.70;99.90;;;;;;5056307;28;20033;-56
2023/04/09 00:59:10;;;;;;;17.60;13.98;;;6.70;99.90;;;;;;5055752;28;20037;-57
2023/04/09 01:01:36;;;;;;;17.02;14.52;;;6.60;99.90;;;;;;5059960;28;20497;-56
2023/04/09 01:04:02;;;;;;;17.63;13.75;;;6.60;99.90;;;;;;5057478;28;20047;-56
2023/04/09 01:06:51;;;;;;;16.67;13.40;;;6.60;99.90;;;;;;5056724;28;20029;-57
2023/04/09 01:09:27;;;;;;;15.75;14.13;;;6.60;99.90;;;;;;5057975;28;20115;-56
2023/04/09 01:12:14;;;;;;;18.92;14.00;;;6.50;99.90;;;;;;5057284;28;20056;-56
2023/04/09 01:14:53;;;;;;;14.73;12.90;;;6.50;99.90;;;;;;5057995;28;20037;-57
2023/04/09 01:17:29;;;;;;;19.02;14.27;;;6.50;99.90;;;;;;5055179;28;20079;-56
2023/04/09 01:20:07;;;;;;;18.58;13.88;;;6.50;99.90;;;;;;5061641;28;20021;-57
2023/04/09 01:23:01;;;;;;;16.85;14.00;;;6.50;99.90;;;;;;5058357;28;20021;-57
2023/04/09 01:25:51;;;;;;;18.20;13.27;;;6.50;99.90;;;;;;5059794;28;20044;-56
2023/04/09 01:28:21;;;;;;;18.38;14.32;;;6.50;99.90;;;;;;5061628;28;20029;-57
2023/04/09 01:30:53;;;;;;;17.02;13.98;;;6.50;99.90;;;;;;5059313;28;20025;-57
2023/04/09 01:33:20;;;;;;;20.05;14.38;;;6.50;99.90;;;;;;5060243;28;20024;-56
2023/04/09 01:35:48;;;;;;;17.73;14.20;;;6.50;99.90;;;;;;5058773;28;20713;-57
2023/04/09 01:38:16;;;;;;;16.17;13.20;;;6.50;99.90;;;;;;5062032;28;20090;-57
2023/04/09 01:40:42;;;;;;;15.60;13.55;;;6.50;99.90;;;;;;5061446;28;20113;-55
2023/04/09 01:43:10;;;;;;;19.63;14.63;;;6.50;99.90;;;;;;5061988;28;20064;-57
2023/04/09 01:45:36;;;;;;;18.10;14.82;;;6.40;99.90;;;;;;5062395;28;20174;-56
2023/04/09 01:48:03;;;;;;;20.27;14.60;;;6.40;99.90;;;;;;5058575;28;20025;-57
2023/04/09 01:50:29;;;;;;;15.80;13.60;;;6.40;99.90;;;;;;5061563;28;20056;-56
2023/04/09 01:52:55;;;;;;;16.40;13.55;;;6.30;99.90;;;;;;5062089;28;20674;-56
2023/04/09 01:55:21;;;;;;;18.23;15.18;;;6.40;99.90;;;;;;5057739;28;20036;-56
2023/04/09 01:57:46;;;;;;;20.02;14.48;;;6.30;99.90;;;;;;5059083;28;20037;-58
2023/04/09 02:00:13;;;;;;;18.02;14.32;;;6.30;99.90;;;;;;5057260;28;20133;-57
2023/04/09 02:02:53;;;;;;;17.45;14.02;;;6.20;99.90;;;;;;5060521;28;20064;-57
2023/04/09 02:05:22;;;;;;;17.25;14.38;;;6.20;99.90;;;;;;5056876;28;20033;-56
2023/04/09 02:07:54;;;;;;;17.77;14.20;;;6.20;99.90;;;;;;5062259;28;20039;-57
2023/04/09 02:10:23;;;;;;;17.80;13.95;;;6.20;99.90;;;;;;5058178;28;20087;-57
2023/04/09 02:12:51;;;;;;;19.88;14.02;;;6.20;99.90;;;;;;5060488;28;20028;-57
2023/04/09 02:15:19;;;;;;;20.08;13.98;;;6.20;99.90;;;;;;5063968;28;20040;-56
2023/04/09 02:17:44;;;;;;;18.05;14.35;;;6.20;99.90;;;;;;5058037;28;20393;-57
2023/04/09 02:20:11;;;;;;;18.38;14.90;;;6.10;99.90;;;;;;5060709;28;20025;-55
2023/04/09 02:22:37;;;;;;;19.48;14.85;;;6.00;99.90;;;;;;5059420;28;20036;-56
2023/04/09 02:25:03;;;;;;;16.60;14.52;;;5.90;99.90;;;;;;5059976;28;20089;-57
2023/04/09 02:27:29;;;;;;;19.17;15.52;;;5.80;99.90;;;;;;5060277;28;20128;-57
2023/04/09 02:29:54;;;;;;;21.67;14.98;;;5.70;99.90;;;;;;5060436;28;20033;-57
2023/04/09 02:32:20;;;;;;;20.70;14.75;;;5.60;99.90;;;;;;5059785;28;20020;-55
2023/04/09 02:34:46;;;;;;;21.42;15.88;;;5.50;99.90;;;;;;5060865;28;20039;-56
2023/04/09 02:37:11;;;;;;;22.70;16.52;;;5.40;99.90;;;;;;5061543;28;20389;-55
2023/04/09 02:39:37;;;;;;;22.30;16.40;;;5.40;99.90;;;;;;5060199;28;20042;-55
2023/04/09 02:42:03;;;;;;;23.63;16.90;;;5.30;99.90;;;;;;5061749;28;20032;-57
2023/04/09 02:44:28;;;;;;;24.27;15.95;;;5.10;99.90;;;;;;5057950;28;20029;-56
2023/04/09 02:46:55;;;;;;;24.73;18.02;;;5.00;99.90;;;;;;5058816;28;20029;-56
2023/04/09 02:49:20;;;;;;;24.85;18.05;;;4.80;99.90;;;;;;5053145;28;20032;-56
2023/04/09 02:51:46;;;;;;;31.80;20.10;;;4.70;99.90;;;;;;5037375;28;20029;-56
2023/04/09 02:54:11;;;;;;;29.75;19.48;;;4.70;99.90;;;;;;5057089;28;20073;-56
2023/04/09 02:56:37;;;;;;;30.17;20.10;;;4.60;99.90;;;;;;5060448;28;20036;-57
2023/04/09 02:59:03;;;;;;;35.25;22.52;;;4.50;99.90;;;;;;5061958;28;20037;-57
2023/04/09 03:01:28;;;;;;;33.72;21.13;;;4.40;99.90;;;;;;5058314;28;20036;-56
2023/04/09 03:03:54;;;;;;;36.55;21.10;;;4.30;99.90;;;;;;5057202;28;20028;-57
2023/04/09 03:06:19;;;;;;;35.70;22.50;;;4.30;99.90;;;;;;5061750;28;20048;-56
2023/04/09 03:08:45;;;;;;;32.63;19.98;;;4.20;99.90;;;;;;5061977;28;20020;-57
2023/04/09 03:11:11;;;;;;;33.15;21.10;;;4.20;99.90;;;;;;5060128;28;20158;-56
2023/04/09 03:13:36;;;;;;;31.23;20.83;;;4.10;99.90;;;;;;5059172;28;20060;-56
2023/04/09 03:16:02;;;;;;;32.50;19.75;;;4.10;99.90;;;;;;5058170;28;20640;-57
2023/04/09 03:18:28;;;;;;;31.75;20.65;;;4.10;99.90;;;;;;5058280;28;20028;-55
2023/04/09 03:20:53;;;;;;;37.00;20.77;;;4.00;99.90;;;;;;5062625;28;20036;-56
2023/04/09 03:23:19;;;;;;;38.75;21.77;;;4.00;99.90;;;;;;5059007;28;20536;-56
2023/04/09 03:25:44;;;;;;;39.60;21.48;;;3.90;99.90;;;;;;5061947;28;20687;-56
2023/04/09 03:28:10;;;;;;;38.33;21.25;;;3.90;99.90;;;;;;5060881;28;20036;-57
2023/04/09 03:30:36;;;;;;;36.70;21.10;;;3.80;99.90;;;;;;5057273;28;20182;-57
2023/04/09 03:33:01;;;;;;;35.88;21.20;;;3.80;99.90;;;;;;5061522;28;20082;-57
2023/04/09 03:35:27;;;;;;;38.30;21.60;;;3.80;99.90;;;;;;5058679;28;20033;-55
2023/04/09 03:37:52;;;;;;;41.75;23.40;;;3.80;99.90;;;;;;5060117;28;20039;-56
2023/04/09 03:40:18;;;;;;;42.85;23.25;;;3.80;99.90;;;;;;5059048;28;20116;-56
2023/04/09 03:42:44;;;;;;;39.75;22.80;;;3.70;99.90;;;;;;5063014;28;20017;-55
2023/04/09 03:45:09;;;;;;;42.30;24.00;;;3.70;99.90;;;;;;5058268;28;20056;-56
2023/04/09 03:47:35;;;;;;;42.13;23.25;;;3.70;99.90;;;;;;5057459;28;20029;-56
2023/04/09 03:50:01;;;;;;;36.80;21.02;;;3.60;99.90;;;;;;5060390;28;20182;-57
2023/04/09 03:52:27;;;;;;;36.28;22.75;;;3.50;99.90;;;;;;5057971;28;20016;-56
2023/04/09 03:54:53;;;;;;;44.95;22.67;;;3.50;99.90;;;;;;5060266;28;20023;-56
2023/04/09 03:57:18;;;;;;;35.20;20.52;;;3.50;99.90;;;;;;5059004;28;20510;-56
2023/04/09 03:59:44;;;;;;;34.55;21.33;;;3.40;99.90;;;;;;5056553;28;20035;-56
2023/04/09 04:02:10;;;;;;;33.72;19.63;;;3.30;99.90;;;;;;5058504;28;20116;-59
2023/04/09 04:04:35;;;;;;;40.00;22.08;;;3.10;99.90;;;;;;5060291;28;20077;-58
2023/04/09 04:07:02;;;;;;;39.50;21.33;;;3.10;99.90;;;;;;5060157;28;20024;-60
2023/04/09 04:09:28;;;;;;;38.22;21.42;;;3.10;99.90;;;;;;5054970;28;20033;-59
2023/04/09 04:11:55;;;;;;;40.72;21.58;;;3.00;99.90;;;;;;5057508;28;20033;-60
2023/04/09 04:14:20;;;;;;;36.90;21.58;;;3.00;99.90;;;;;;5058663;28;20035;-59
2023/04/09 04:16:46;;;;;;;37.50;21.30;;;3.00;99.90;;;;;;5059915;28;20033;-56
2023/04/09 04:19:11;;;;;;;40.20;21.85;;;3.00;99.90;;;;;;5059279;28;20017;-56
2023/04/09 04:21:37;;;;;;;37.20;20.05;;;2.90;99.90;;;;;;5059190;28;20033;-56
2023/04/09 04:24:03;;;;;;;37.13;20.20;;;2.90;99.90;;;;;;5065713;28;20035;-57
2023/04/09 04:26:29;;;;;;;31.58;18.90;;;2.90;99.90;;;;;;5060404;28;20085;-56
2023/04/09 04:28:54;;;;;;;36.33;19.45;;;2.90;99.90;;;;;;5059996;28;20039;-57
2023/04/09 04:31:20;;;;;;;25.02;16.88;;;2.90;99.90;;;;;;5056651;28;20031;-56
2023/04/09 04:33:46;;;;;;;35.50;18.55;;;2.80;99.90;;;;;;5059517;28;20063;-56
2023/04/09 04:36:12;;;;;;;35.38;19.65;;;2.80;99.90;;;;;;5057306;28;20119;-56
2023/04/09 04:38:40;;;;;;;27.55;16.95;;;2.80;99.90;;;;;;5057552;28;20116;-56
2023/04/09 04:41:06;;;;;;;33.75;19.00;;;2.70;99.90;;;;;;5057851;28;20039;-59
2023/04/09 04:43:31;;;;;;;39.40;21.25;;;2.70;99.90;;;;;;5058430;28;20025;-60
2023/04/09 04:45:57;;;;;;;40.45;21.67;;;2.70;99.90;;;;;;5059260;28;20457;-60
2023/04/09 04:48:23;;;;;;;33.80;20.55;;;2.70;99.90;;;;;;5055992;28;20486;-59
2023/04/09 04:50:57;;;;;;;41.78;22.20;;;2.70;99.90;;;;;;5058430;28;20029;-59
2023/04/09 04:53:22;;;;;;;44.53;22.67;;;2.70;99.90;;;;;;5054028;28;20603;-58
2023/04/09 04:55:48;;;;;;;39.47;22.33;;;2.70;99.90;;;;;;5058766;28;20128;-59
2023/04/09 04:58:13;;;;;;;34.85;19.92;;;2.70;99.90;;;;;;5060234;28;20082;-59
2023/04/09 05:00:39;;;;;;;28.77;18.15;;;2.70;99.90;;;;;;5061940;28;20120;-60
2023/04/09 05:03:05;;;;;;;29.75;17.30;;;2.60;99.90;;;;;;5060368;28;20396;-60
2023/04/09 05:05:30;;;;;;;30.25;18.35;;;2.60;99.90;;;;;;5060819;28;20049;-56
2023/04/09 05:07:56;;;;;;;28.77;17.73;;;2.60;99.90;;;;;;5060425;28;20107;-56
2023/04/09 05:10:22;;;;;;;28.83;17.55;;;2.60;99.90;;;;;;5060127;28;20025;-56
2023/04/09 05:12:47;;;;;;;29.10;16.27;;;2.60;99.90;;;;;;5059458;28;20948;-57
2023/04/09 05:15:13;;;;;;;26.48;16.38;;;2.60;99.90;;;;;;5057964;28;20404;-56
2023/04/09 05:17:42;;;;;;;22.40;14.95;;;2.60;99.90;;;;;;5057289;28;20041;-56
2023/04/09 05:20:08;;;;;;;22.73;15.52;;;2.50;99.90;;;;;;5065344;28;20039;-56
2023/04/09 05:22:35;;;;;;;27.00;15.32;;;2.60;99.90;;;;;;5060825;28;20054;-57
2023/04/09 05:25:01;;;;;;;25.10;15.27;;;2.50;99.90;;;;;;5061347;28;20044;-56
2023/04/09 05:27:27;;;;;;;28.48;16.50;;;2.50;99.90;;;;;;5063281;28;20048;-56
2023/04/09 05:29:53;;;;;;;34.70;19.58;;;2.50;99.90;;;;;;5061386;28;20091;-56
2023/04/09 05:32:19;;;;;;;30.35;17.58;;;2.60;99.90;;;;;;5059577;28;20073;-59
2023/04/09 05:34:44;;;;;;;37.17;20.55;;;2.70;99.90;;;;;;5059696;28;20036;-60
2023/04/09 05:37:10;;;;;;;26.25;16.52;;;2.80;99.90;;;;;;5061781;28;20078;-60
2023/04/09 05:39:36;;;;;;;29.58;17.17;;;2.90;99.90;;;;;;5059638;28;20051;-57
2023/04/09 05:42:01;;;;;;;23.60;15.85;;;2.90;99.90;;;;;;5062821;28;20041;-57
2023/04/09 05:44:27;;;;;;;26.48;16.17;;;2.90;99.90;;;;;;5059398;28;20405;-57
2023/04/09 05:46:53;;;;;;;24.30;15.98;;;3.00;99.90;;;;;;5057690;28;20051;-56
2023/04/09 05:49:18;;;;;;;26.67;15.93;;;3.00;99.90;;;;;;5056142;28;20035;-56
2023/04/09 05:51:44;;;;;;;26.08;16.85;;;3.10;99.90;;;;;;5060866;28;20065;-56
2023/04/09 05:54:10;;;;;;;27.77;17.67;;;3.10;99.90;;;;;;5055508;28;20037;-56
2023/04/09 05:56:35;;;;;;;27.45;18.35;;;3.20;99.90;;;;;;5060294;28;20025;-56
2023/04/09 05:59:01;;;;;;;30.92;18.77;;;3.20;99.90;;;;;;5059416;28;20400;-57
2023/04/09 06:01:28;;;;;;;29.63;18.02;;;3.30;99.90;;;;;;5060065;28;20044;-57
2023/04/09 06:03:54;;;;;;;31.85;18.45;;;3.40;99.90;;;;;;5060856;28;20025;-57
2023/04/09 06:06:20;;;;;;;33.72;19.05;;;3.50;99.90;;;;;;5059416;28;20086;-57
2023/04/09 06:08:46;;;;;;;31.05;17.70;;;3.50;99.90;;;;;;5059239;28;20040;-57
2023/04/09 06:11:12;;;;;;;40.13;21.27;;;3.60;99.90;;;;;;5063515;28;20059;-57
2023/04/09 06:13:38;;;;;;;43.75;22.67;;;3.70;99.90;;;;;;5061879;28;20040;-56
2023/04/09 06:16:07;;;;;;;42.35;22.30;;;3.80;99.90;;;;;;5062975;28;20028;-57
2023/04/09 06:18:33;;;;;;;32.70;20.05;;;3.90;99.90;;;;;;5060316;28;20467;-57
2023/04/09 06:21:07;;;;;;;39.20;21.77;;;4.00;99.90;;;;;;5059572;28;20044;-56
2023/04/09 06:23:35;;;;;;;37.42;21.00;;;4.10;99.90;;;;;;5064089;28;20024;-56
2023/04/09 06:26:01;;;;;;;38.70;21.85;;;4.20;99.90;;;;;;5059291;28;20079;-56
2023/04/09 06:28:30;;;;;;;40.85;22.77;;;4.30;99.90;;;;;;5060554;28;20021;-57
2023/04/09 06:30:56;;;;;;;47.45;24.10;;;4.30;99.90;;;;;;5064711;28;20020;-56
2023/04/09 06:33:22;;;;;;;54.97;25.52;;;4.40;99.90;;;;;;5061811;28;20139;-55
2023/04/09 06:35:48;;;;;;;50.50;26.02;;;4.40;99.90;;;;;;5057104;28;20108;-56
2023/04/09 06:38:14;;;;;;;51.28;26.35;;;4.50;99.90;;;;;;5059316;28;20049;-57
2023/04/09 06:40:40;;;;;;;47.55;26.70;;;4.60;99.90;;;;;;5058011;28;20079;-56
2023/04/09 06:43:06;;;;;;;56.45;27.13;;;4.70;99.90;;;;;;5058552;28;20021;-56
2023/04/09 06:45:32;;;;;;;55.55;26.02;;;4.80;99.90;;;;;;5060183;28;20028;-56
2023/04/09 06:47:59;;;;;;;54.15;26.13;;;4.90;99.90;;;;;;5059731;28;20057;-57
2023/04/09 06:50:24;;;;;;;55.45;28.48;;;5.00;99.90;;;;;;5063023;28;20509;-60
2023/04/09 06:52:51;;;;;;;56.63;27.30;;;5.10;99.90;;;;;;5063133;28;20043;-59
2023/04/09 06:55:16;;;;;;;49.40;26.35;;;5.20;99.90;;;;;;5062320;28;20464;-58
2023/04/09 06:57:42;;;;;;;50.42;26.20;;;5.30;99.90;;;;;;5058975;28;20090;-59
2023/04/09 07:00:09;;;;;;;54.30;27.38;;;5.30;99.90;;;;;;5060589;28;20492;-59
2023/04/09 07:02:35;;;;;;;44.15;24.80;;;5.40;99.90;;;;;;5058985;28;20523;-59
2023/04/09 07:05:02;;;;;;;50.47;26.70;;;5.50;99.90;;;;;;5059291;28;20492;-59
2023/04/09 07:07:27;;;;;;;48.60;25.00;;;5.60;99.90;;;;;;5060385;28;20032;-60
2023/04/09 07:09:53;;;;;;;41.85;23.45;;;5.70;99.90;;;;;;5063011;28;20074;-58
2023/04/09 07:12:29;;;;;;;44.78;24.92;;;5.80;99.90;;;;;;5057488;28;20393;-58
2023/04/09 07:14:59;;;;;;;44.75;24.55;;;5.90;99.90;;;;;;5062601;28;20428;-59
2023/04/09 07:17:24;;;;;;;42.53;24.92;;;6.00;99.90;;;;;;5060385;28;20103;-59
2023/04/09 07:19:50;;;;;;;39.95;24.10;;;6.10;99.90;;;;;;5060971;28;20461;-60
2023/04/09 07:22:17;;;;;;;47.03;24.77;;;6.10;99.90;;;;;;5059681;28;20055;-60
2023/04/09 07:24:42;;;;;;;39.42;23.65;;;6.20;99.90;;;;;;5060798;28;20447;-60
2023/04/09 07:27:09;;;;;;;41.50;24.08;;;6.20;99.90;;;;;;5057595;28;20083;-58
2023/04/09 07:29:35;;;;;;;39.53;23.15;;;6.30;99.90;;;;;;5056830;28;20029;-60
2023/04/09 07:32:02;;;;;;;38.67;23.85;;;6.40;99.90;;;;;;5057408;28;20118;-59
2023/04/09 07:34:28;;;;;;;35.75;23.25;;;6.50;99.90;;;;;;5058473;28;20063;-59
2023/04/09 07:36:54;;;;;;;42.33;23.65;;;6.70;99.90;;;;;;5061877;28;20136;-57
2023/04/09 07:39:21;;;;;;;51.17;26.27;;;6.80;99.90;;;;;;5063391;28;20094;-57
2023/04/09 07:41:47;;;;;;;38.90;24.77;;;7.00;99.90;;;;;;5060452;28;20124;-57
2023/04/09 07:44:13;;;;;;;36.92;22.83;;;7.00;99.90;;;;;;5057177;28;20602;-55
2023/04/09 07:46:38;;;;;;;37.20;22.42;;;7.10;99.90;;;;;;5058356;28;20044;-57
2023/04/09 07:49:04;;;;;;;36.28;22.40;;;7.20;99.90;;;;;;5057546;28;20036;-56
2023/04/09 07:51:30;;;;;;;36.78;21.52;;;7.30;99.90;;;;;;5055777;28;20584;-57
2023/04/09 07:53:56;;;;;;;32.97;22.48;;;7.40;99.90;;;;;;5057941;28;20037;-56
2023/04/09 07:56:22;;;;;;;42.00;23.52;;;7.50;99.90;;;;;;5061814;28;20393;-57
2023/04/09 07:58:48;;;;;;;31.88;21.15;;;7.70;99.90;;;;;;5062490;28;20505;-56
2023/04/09 08:01:14;;;;;;;39.90;23.90;;;7.90;99.90;;;;;;5057053;28;20020;-59
2023/04/09 08:03:40;;;;;;;32.22;21.67;;;8.00;99.90;;;;;;5059600;28;20197;-59
2023/04/09 08:06:06;;;;;;;35.38;21.95;;;8.10;99.90;;;;;;5060268;28;20057;-56
2023/04/09 08:08:31;;;;;;;30.95;21.38;;;8.10;99.90;;;;;;5059698;28;20497;-58
2023/04/09 08:10:57;;;;;;;32.20;21.52;;;8.20;99.90;;;;;;5057168;28;20402;-57
2023/04/09 08:13:24;;;;;;;27.70;19.17;;;8.30;99.90;;;;;;5059016;28;20021;-58
2023/04/09 08:15:50;;;;;;;26.50;18.52;;;8.40;99.90;;;;;;5059985;28;20556;-56
2023/04/09 08:18:15;;;;;;;28.38;20.33;;;8.60;99.90;;;;;;5059818;28;20112;-57
2023/04/09 08:20:43;;;;;;;23.70;17.30;;;8.70;99.90;;;;;;5058940;28;20493;-57
2023/04/09 08:23:10;;;;;;;23.33;17.58;;;8.70;99.90;;;;;;5056060;28;20541;-56
2023/04/09 08:25:36;;;;;;;24.80;18.25;;;8.70;99.90;;;;;;5057439;28;20032;-57
2023/04/09 08:28:01;;;;;;;24.15;18.33;;;8.80;99.90;;;;;;5057878;28;20036;-57
2023/04/09 08:30:27;;;;;;;22.50;17.85;;;8.90;99.90;;;;;;5056016;28;20434;-57
2023/04/09 08:32:53;;;;;;;24.45;18.90;;;8.90;99.90;;;;;;5060185;28;20024;-57
2023/04/09 08:35:19;;;;;;;23.15;18.42;;;9.00;99.90;;;;;;5063997;28;20028;-56
2023/04/09 08:37:44;;;;;;;23.40;17.52;;;9.10;99.90;;;;;;5061121;28;20029;-57
2023/04/09 08:40:10;;;;;;;23.33;18.95;;;9.10;99.90;;;;;;5057374;28;20124;-56
2023/04/09 08:42:44;;;;;;;23.15;17.83;;;9.30;99.90;;;;;;5060750;28;20032;-57
2023/04/09 08:45:10;;;;;;;22.65;18.25;;;9.30;99.90;;;;;;5062909;28;20032;-57
2023/04/09 08:47:37;;;;;;;23.23;17.77;;;9.40;99.90;;;;;;5064991;28;20025;-56
2023/04/09 08:50:03;;;;;;;19.83;17.30;;;9.50;99.90;;;;;;5059629;28;20497;-58
2023/04/09 08:52:33;;;;;;;20.85;17.20;;;9.60;99.90;;;;;;5058719;28;20040;-57
2023/04/09 08:54:59;;;;;;;20.00;16.08;;;9.80;99.90;;;;;;5061410;28;20193;-57
2023/04/09 08:57:25;;;;;;;17.98;15.70;;;9.80;99.90;;;;;;5064370;28;20548;-56
2023/04/09 08:59:51;;;;;;;17.92;15.88;;;9.90;99.90;;;;;;5059872;28;20036;-57
2023/04/09 09:02:16;;;;;;;14.63;13.23;;;10.00;99.90;;;;;;5059154;28;20109;-56
2023/04/09 09:04:48;;;;;;;12.93;11.57;;;10.20;99.90;;;;;;5058225;28;20098;-56
2023/04/09 09:07:15;;;;;;;14.48;13.07;;;10.30;97.60;;;;;;5060568;28;20121;-57
2023/04/09 09:09:51;;;;;;;16.23;14.57;;;10.50;96.30;;;;;;5059390;28;20090;-58
2023/04/09 09:12:38;;;;;;;14.10;12.63;;;10.70;98.50;;;;;;5061714;28;20747;-58
2023/04/09 09:15:05;;;;;;;15.85;13.00;;;10.80;96.80;;;;;;5061490;28;20037;-57
2023/04/09 09:17:31;;;;;;;11.48;10.40;;;11.70;94.90;;;;;;5062406;28;20120;-58
2023/04/09 09:19:58;;;;;;;14.18;12.88;;;12.90;93.20;;;;;;5056940;28;20120;-57
2023/04/09 09:22:24;;;;;;;12.52;11.43;;;14.50;90.50;;;;;;5063534;28;20037;-58
2023/04/09 09:24:51;;;;;;;12.57;11.40;;;15.30;80.00;;;;;;5065396;28;20039;-59
2023/04/09 09:27:35;;;;;;;12.88;11.77;;;15.70;79.20;;;;;;5063553;28;20039;-58
2023/04/09 09:30:05;;;;;;;13.50;12.40;;;15.40;74.80;;;;;;5060260;28;20060;-58
2023/04/09 09:32:34;;;;;;;12.45;11.35;;;15.20;76.00;;;;;;5063157;28;20031;-58
2023/04/09 09:35:05;;;;;;;13.15;11.95;;;15.00;74.70;;;;;;5060939;28;20473;-58
2023/04/09 09:37:31;;;;;;;;;;;14.90;73.30;;;;;;5064818;28;20116;-58
2023/04/09 09:39:57;;;;;;;12.95;11.82;;;15.10;77.30;;;;;;5062761;28;20380;-58
2023/04/09 09:42:23;;;;;;;12.73;11.63;;;15.10;74.10;;;;;;5058686;28;20033;-57
2023/04/09 09:44:50;;;;;;;10.32;9.52;;;14.60;73.60;;;;;;5058951;28;20111;-57
2023/04/09 09:47:18;;;;;;;10.88;9.88;;;14.30;70.10;;;;;;5062688;28;20405;-57
2023/04/09 09:49:45;;;;;;;12.43;11.43;;;14.40;75.90;;;;;;5049571;28;20104;-56
2023/04/09 09:52:10;;;;;;;11.93;10.90;;;14.60;76.50;;;;;;5060345;28;20037;-58
2023/04/09 09:54:43;;;;;;;11.65;10.65;;;14.50;76.40;;;;;;5057956;28;20059;-57
2023/04/09 09:57:12;;;;;;;11.68;10.63;;;14.50;79.50;;;;;;5056796;28;20040;-58
2023/04/09 09:59:42;;;;;;;11.77;10.75;;;15.00;77.90;;;;;;5057557;28;20523;-59
2023/04/09 10:02:18;;;;;;;10.80;9.90;;;15.70;72.00;;;;;;5062187;28;20504;-58
2023/04/09 10:04:43;;;;;;;11.18;10.27;;;16.20;72.70;;;;;;5061344;28;20384;-58
2023/04/09 10:07:10;;;;;;;9.60;8.80;;;16.40;70.50;;;;;;5059778;28;20103;-58
2023/04/09 10:09:41;;;;;;;10.63;9.73;;;16.60;70.60;;;;;;5057116;28;20037;-58
2023/04/09 10:12:09;;;;;;;9.60;8.82;;;16.70;68.60;;;;;;5062215;28;20033;-57
2023/04/09 10:14:35;;;;;;;9.35;8.60;;;17.20;67.30;;;;;;5075968;28;20519;-59
2023/04/09 10:17:02;;;;;;;9.52;8.73;;;17.60;65.80;;;;;;5057164;28;20116;-58
2023/04/09 10:19:30;;;;;;;10.45;9.55;;;17.50;62.50;;;;;;5057414;28;20528;-56
2023/04/09 10:22:04;;;;;;;10.30;9.50;;;17.70;62.90;;;;;;5062471;28;20120;-57
2023/04/09 10:24:32;;;;;;;9.63;8.82;;;17.90;61.70;;;;;;5059473;28;20040;-58
2023/04/09 10:27:12;;;;;;;9.95;9.15;;;17.60;63.70;;;;;;5059163;28;20377;-59
2023/04/09 10:29:46;;;;;;;9.90;9.10;;;18.00;66.70;;;;;;5059152;28;20058;-59
2023/04/09 10:32:20;;;;;;;8.70;8.00;;;18.50;61.60;;;;;;5061859;28;20066;-59
2023/04/09 10:34:45;;;;;;;9.23;8.52;;;18.40;65.30;;;;;;5059038;28;20029;-58
2023/04/09 10:37:19;;;;;;;9.35;8.55;;;18.60;64.20;;;;;;5055568;28;20424;-57
2023/04/09 10:39:46;;;;;;;9.10;8.40;;;18.70;59.50;;;;;;5055356;28;20042;-58
2023/04/09 10:42:34;;;;;;;9.25;8.55;;;18.70;63.00;;;;;;5053085;28;20045;-58
2023/04/09 10:45:07;;;;;;;8.25;7.55;;;18.50;61.70;;;;;;5058359;28;20124;-57
2023/04/09 10:47:34;;;;;;;9.20;8.40;;;18.20;62.60;;;;;;5058063;28;20039;-58
2023/04/09 10:50:24;;;;;;;9.27;8.55;;;17.90;64.90;;;;;;5056125;28;20115;-58
2023/04/09 10:52:56;;;;;;;9.20;8.40;;;17.50;62.20;;;;;;5057486;28;20063;-59
2023/04/09 10:55:35;;;;;;;9.13;8.40;;;17.20;63.30;;;;;;5056256;28;20043;-59
2023/04/09 10:58:01;;;;;;;8.95;8.15;;;16.30;66.00;;;;;;5058475;28;20037;-58
2023/04/09 11:00:27;;;;;;;9.90;9.10;;;15.80;63.80;;;;;;5058867;28;20087;-58
2023/04/09 11:03:02;;;;;;;9.75;8.85;;;15.10;69.20;;;;;;5054467;28;20388;-58
2023/04/09 11:05:36;;;;;;;9.43;8.70;;;15.10;68.30;;;;;;5059235;28;20028;-58
2023/04/09 11:08:12;;;;;;;14.57;9.20;;;15.20;67.20;;;;;;5058059;28;21022;-58
2023/04/09 11:10:40;;;;;;;9.60;8.68;;;15.00;71.90;;;;;;5058895;28;20028;-58
2023/04/09 11:13:10;;;;;;;9.30;8.50;;;14.80;69.70;;;;;;5059092;28;20070;-58
2023/04/09 11:15:36;;;;;;;8.75;8.05;;;14.70;72.30;;;;;;5057680;28;20029;-58
2023/04/09 11:18:02;;;;;;;9.63;8.73;;;14.70;67.90;;;;;;5057935;28;20041;-58
2023/04/09 11:20:30;;;;;;;9.98;9.07;;;14.50;71.40;;;;;;5058155;28;20505;-58
2023/04/09 11:22:55;;;;;;;9.05;8.25;;;14.40;69.70;;;;;;5055713;28;20067;-58
2023/04/09 11:25:24;;;;;;;9.07;8.20;;;14.20;67.30;;;;;;5059886;28;20621;-58
2023/04/09 11:27:50;;;;;;;8.80;7.60;;;14.40;72.40;;;;;;5055541;28;20082;-58
2023/04/09 11:30:16;;;;;;;8.65;7.93;;;14.80;71.40;;;;;;5058453;28;20096;-57
2023/04/09 11:32:42;;;;;;;8.93;8.13;;;15.30;71.10;;;;;;5055434;28;20032;-59
2023/04/09 11:35:19;;;;;;;8.40;7.60;;;15.60;65.30;;;;;;5059646;28;20382;-58
2023/04/09 11:37:45;;;;;;;12.93;8.40;;;15.90;63.70;;;;;;5060787;28;20396;-59
2023/04/09 11:40:21;;;;;;;8.23;7.53;;;15.90;62.80;;;;;;5060013;28;20409;-58
2023/04/09 11:42:49;;;;;;;8.63;7.93;;;16.20;64.40;;;;;;5057773;28;20036;-57
2023/04/09 11:45:16;;;;;;;8.43;7.72;;;16.60;64.30;;;;;;5059231;28;20371;-58
2023/04/09 11:47:43;;;;;;;8.20;7.53;;;17.00;64.70;;;;;;5058305;28;20074;-59
2023/04/09 11:50:10;;;;;;;9.35;8.55;;;17.00;62.60;;;;;;5060816;28;20059;-60
2023/04/09 11:52:36;;;;;;;8.82;8.02;;;17.10;60.00;;;;;;5057099;28;20024;-58
2023/04/09 11:55:03;;;;;;;9.30;8.50;;;17.10;63.50;;;;;;5055577;28;20074;-58
2023/04/09 11:57:45;;;;;;;7.68;7.07;;;17.00;61.00;;;;;;5059366;28;20098;-59
2023/04/09 12:00:16;;;;;;;8.82;8.13;;;17.30;60.50;;;;;;5057238;28;20025;-59
2023/04/09 12:02:47;;;;;;;9.40;8.52;;;17.20;65.90;;;;;;5058420;28;20025;-58
2023/04/09 12:05:22;;;;;;;;;;;17.30;64.40;;;;;;5058849;28;20033;-57
2023/04/09 12:07:48;;;;;;;9.23;8.32;;;17.20;61.90;;;;;;5054414;28;19921;-58
2023/04/09 12:10:13;;;;;;;9.50;8.70;;;17.10;65.30;;;;;;5054743;28;20027;-58
2023/04/09 12:12:47;;;;;;;9.18;8.38;;;17.10;64.00;;;;;;5056469;28;20400;-59
2023/04/09 12:15:19;;;;;;;7.97;7.38;;;17.20;62.10;;;;;;5037718;28;20045;-57
2023/04/09 12:17:54;;;;;;;7.85;7.18;;;17.30;64.80;;;;;;5051560;28;20578;-57
2023/04/09 12:20:28;;;;;;;8.30;7.60;;;17.10;66.40;;;;;;5059244;28;20040;-59
2023/04/09 12:22:54;;;;;;;7.70;7.05;;;17.10;63.90;;;;;;5053742;28;20052;-59
2023/04/09 12:25:20;;;;;;;8.05;7.28;;;16.80;61.70;;;;;;5039151;28;20099;-57
2023/04/09 12:27:45;;;;;;;8.02;7.32;;;16.60;66.30;;;;;;5045316;28;20473;-58
2023/04/09 12:30:11;;;;;;;8.32;7.63;;;16.60;70.20;;;;;;5063148;28;20867;-58
2023/04/09 12:32:37;;;;;;;8.45;7.75;;;16.60;68.10;;;;;;5061895;28;20582;-58
2023/04/09 12:35:03;;;;;;;7.95;7.25;;;16.90;63.40;;;;;;5058926;28;20087;-59
2023/04/09 12:37:29;;;;;;;8.23;7.60;;;16.70;63.20;;;;;;5060668;28;20032;-59
2023/04/09 12:39:55;;;;;;;8.00;7.30;;;16.40;59.30;;;;;;5058617;28;20025;-59